Time;durP1;ratioP1;P1;durP2;ratioP2;P2;SDS_P1;SDS_P2;PMS_P1;PMS_P2;Temp;Humidity;BMP_temperature;BMP_pressure;BME280_temperature;BME280_humidity;BME280_pressure;Samples;Min_cycle;Max_cycle;Signal;HPM_P1;HPM_P2
2023/12/22 00:02:35;0.00;0.00;0.62;0.00;0.00;0.62;4.40;2.20;;;21.10;27.00;;;;;;2268657;61;20993;-53
2023/12/22 00:05:20;0.00;0.00;0.62;0.00;0.00;0.62;4.07;2.10;;;21.10;27.00;;;;;;2268897;61;20370;-54
2023/12/22 00:08:05;0.00;0.00;0.62;0.00;0.00;0.62;3.40;1.97;;;21.10;27.00;;;;;;2269012;61;20378;-55
2023/12/22 00:10:51;0.00;0.00;0.62;0.00;0.00;0.62;4.07;2.07;;;21.10;27.10;;;;;;2268935;61;20957;-59
2023/12/22 00:13:36;0.00;0.00;0.62;0.00;0.00;0.62;3.70;1.90;;;21.10;27.00;;;;;;2268331;61;20390;-55
2023/12/22 00:16:20;0.00;0.00;0.62;0.00;0.00;0.62;3.80;2.30;;;21.10;27.00;;;;;;2269137;61;20417;-57
2023/12/22 00:19:05;0.00;0.00;0.62;0.00;0.00;0.62;3.37;1.60;;;21.10;27.00;;;;;;2269251;61;20382;-51
2023/12/22 00:21:49;0.00;0.00;0.62;0.00;0.00;0.62;2.93;1.73;;;21.10;27.00;;;;;;2268281;61;20450;-54
2023/12/22 00:24:34;0.00;0.00;0.62;0.00;0.00;0.62;2.83;1.60;;;21.00;27.00;;;;;;2269004;61;20429;-55
2023/12/22 00:27:20;0.00;0.00;0.62;0.00;0.00;0.62;5.97;2.60;;;21.10;27.00;;;;;;2268939;61;20387;-52
2023/12/22 00:30:06;0.00;0.00;0.62;0.00;0.00;0.62;2.43;1.50;;;21.10;27.00;;;;;;2268807;61;20419;-53
2023/12/22 00:32:51;0.00;0.00;0.62;0.00;0.00;0.62;4.70;2.30;;;21.10;27.00;;;;;;2268748;61;20362;-56
2023/12/22 00:35:36;0.00;0.00;0.62;0.00;0.00;0.62;3.80;2.30;;;21.00;26.90;;;;;;2268796;61;20359;-57
2023/12/22 00:38:21;0.00;0.00;0.62;0.00;0.00;0.62;4.00;1.87;;;21.10;27.00;;;;;;2269185;61;20947;-54
2023/12/22 00:41:05;0.00;0.00;0.62;0.00;0.00;0.62;4.23;1.97;;;21.10;27.00;;;;;;2268786;61;20993;-54
2023/12/22 00:43:51;0.00;0.00;0.62;0.00;0.00;0.62;2.80;1.67;;;21.10;27.00;;;;;;2268534;61;20386;-52
2023/12/22 00:46:35;0.00;0.00;0.62;0.00;0.00;0.62;4.23;2.13;;;21.00;26.90;;;;;;2269117;61;20401;-54
2023/12/22 00:49:21;0.00;0.00;0.62;0.00;0.00;0.62;2.60;1.50;;;21.10;27.00;;;;;;2268981;61;20429;-56
2023/12/22 00:52:06;0.00;0.00;0.62;0.00;0.00;0.62;3.80;1.70;;;21.10;27.00;;;;;;2268425;61;20460;-56
2023/12/22 00:54:51;0.00;0.00;0.62;0.00;0.00;0.62;4.70;2.10;;;21.00;26.90;;;;;;2269004;61;20845;-57
2023/12/22 00:57:35;0.00;0.00;0.62;0.00;0.00;0.62;4.40;2.13;;;21.00;26.90;;;;;;2268943;61;20428;-54
2023/12/22 01:00:21;0.00;0.00;0.62;0.00;0.00;0.62;4.60;1.63;;;21.00;26.90;;;;;;2268963;61;20655;-53
2023/12/22 01:03:06;0.00;0.00;0.62;0.00;0.00;0.62;3.97;1.47;;;21.00;26.90;;;;;;2268834;61;20386;-52
2023/12/22 01:05:51;0.00;0.00;0.62;0.00;0.00;0.62;3.97;2.23;;;21.00;26.90;;;;;;2265202;61;20359;-56
2023/12/22 01:08:37;0.00;0.00;0.62;0.00;0.00;0.62;3.77;1.50;;;21.00;26.90;;;;;;2268807;61;20505;-51
2023/12/22 01:11:21;0.00;0.00;0.62;0.00;0.00;0.62;3.60;1.73;;;21.00;26.90;;;;;;2268732;61;20409;-54
2023/12/22 01:14:06;0.00;0.00;0.62;0.00;0.00;0.62;3.13;1.70;;;21.00;26.90;;;;;;2268485;61;20918;-55
2023/12/22 01:16:52;0.00;0.00;0.62;0.00;0.00;0.62;2.47;1.23;;;21.00;26.90;;;;;;2269103;61;20371;-54
2023/12/22 01:19:37;0.00;0.00;0.62;0.00;0.00;0.62;2.97;1.73;;;21.00;26.90;;;;;;2268879;61;20413;-56
2023/12/22 01:22:22;0.00;0.00;0.62;0.00;0.00;0.62;3.90;1.60;;;21.00;26.90;;;;;;2268257;61;20402;-54
2023/12/22 01:25:07;0.00;0.00;0.62;0.00;0.00;0.62;2.77;1.50;;;21.00;26.90;;;;;;2268846;61;20775;-54
2023/12/22 01:28:02;0.00;0.00;0.62;0.00;0.00;0.62;3.30;1.83;;;21.00;26.90;;;;;;1672280;74;20466;-58
2023/12/22 01:30:47;0.00;0.00;0.62;0.00;0.00;0.62;3.60;1.80;;;21.00;26.90;;;;;;2259690;61;20754;-58
2023/12/22 01:33:32;0.00;0.00;0.62;0.00;0.00;0.62;3.13;1.70;;;21.00;26.90;;;;;;2259643;61;20380;-58
2023/12/22 01:36:16;0.00;0.00;0.62;0.00;0.00;0.62;3.90;2.00;;;21.00;26.90;;;;;;2259491;61;20361;-58
2023/12/22 01:39:01;0.00;0.00;0.62;0.00;0.00;0.62;3.57;1.70;;;21.00;26.90;;;;;;2259793;61;20432;-58
2023/12/22 01:41:46;0.00;0.00;0.62;0.00;0.00;0.62;2.90;1.70;;;21.00;26.90;;;;;;2259633;61;20467;-55
2023/12/22 01:44:32;0.00;0.00;0.62;0.00;0.00;0.62;3.10;1.37;;;20.90;26.80;;;;;;2259622;61;20469;-53
2023/12/22 01:47:17;0.00;0.00;0.62;0.00;0.00;0.62;3.30;2.00;;;21.00;26.90;;;;;;2259718;61;20397;-57
2023/12/22 01:50:02;0.00;0.00;0.62;0.00;0.00;0.62;5.30;1.43;;;21.00;26.90;;;;;;2259594;61;20448;-56
2023/12/22 01:52:47;0.00;0.00;0.62;0.00;0.00;0.62;3.03;1.40;;;21.00;26.90;;;;;;2259282;61;20802;-59
2023/12/22 01:55:32;0.00;0.00;0.62;0.00;0.00;0.62;3.10;2.00;;;21.00;26.90;;;;;;2259921;61;20783;-58
2023/12/22 01:58:18;0.00;0.00;0.62;0.00;0.00;0.62;3.77;1.70;;;21.00;26.90;;;;;;2261651;61;20365;-55
2023/12/22 02:01:06;0.00;0.00;0.62;0.00;0.00;0.62;3.13;1.57;;;21.00;26.90;;;;;;2259763;61;20940;-57
2023/12/22 02:03:52;0.00;0.00;0.62;0.00;0.00;0.62;2.20;1.10;;;21.00;26.90;;;;;;2259346;61;20365;-54
2023/12/22 02:06:37;0.00;0.00;0.62;0.00;0.00;0.62;2.43;1.33;;;21.00;26.90;;;;;;2259552;61;20388;-57
2023/12/22 02:09:22;0.00;0.00;0.62;0.00;0.00;0.62;2.80;1.33;;;21.00;26.90;;;;;;2259704;61;20787;-59
2023/12/22 02:12:07;0.00;0.00;0.62;0.00;0.00;0.62;2.83;2.00;;;21.00;26.90;;;;;;2259259;61;20365;-55
2023/12/22 02:14:52;0.00;0.00;0.62;0.00;0.00;0.62;2.80;1.50;;;21.00;26.90;;;;;;2259735;61;20365;-59
2023/12/22 02:17:48;0.00;0.00;0.62;0.00;0.00;0.62;4.30;1.50;;;21.00;26.90;;;;;;2259627;61;20419;-59
2023/12/22 02:20:34;0.00;0.00;0.62;0.00;0.00;0.62;4.07;1.60;;;21.00;26.90;;;;;;2259148;61;20554;-57
2023/12/22 02:23:20;0.00;0.00;0.62;0.00;0.00;0.62;1.93;1.10;;;20.90;26.80;;;;;;2259207;61;20369;-53
2023/12/22 02:26:12;0.00;0.00;0.62;0.00;0.00;0.62;2.73;1.20;;;20.90;26.80;;;;;;2257052;61;20846;-58
2023/12/22 02:28:58;0.00;0.00;0.62;0.00;0.00;0.62;2.90;1.57;;;21.00;27.40;;;;;;2255108;61;20405;-55
2023/12/22 02:31:48;0.00;0.00;0.62;0.00;0.00;0.62;2.43;1.17;;;20.90;26.80;;;;;;2258196;61;20428;-56
2023/12/22 02:34:37;0.00;0.00;0.62;0.00;0.00;0.62;3.07;1.20;;;20.90;26.80;;;;;;2259471;61;20860;-55
2023/12/22 02:37:23;0.00;0.00;0.62;0.00;0.00;0.62;2.83;1.10;;;20.90;26.80;;;;;;2259046;61;20997;-58
2023/12/22 02:40:11;0.00;0.00;0.62;0.00;0.00;0.62;2.67;1.10;;;20.90;26.80;;;;;;2256857;61;20968;-58
2023/12/22 02:42:56;0.00;0.00;0.62;0.00;0.00;0.62;2.17;1.17;;;20.90;26.70;;;;;;2536823;45;20405;-54
2023/12/22 02:45:40;0.00;0.00;0.62;0.00;0.00;0.62;2.80;1.27;;;20.90;26.80;;;;;;2254340;61;20432;-57
2023/12/22 02:48:25;0.00;0.00;0.62;0.00;0.00;0.62;4.63;1.30;;;20.90;26.80;;;;;;2256985;61;20366;-52
2023/12/22 02:51:10;0.00;0.00;0.62;0.00;0.00;0.62;2.10;1.10;;;20.90;26.80;;;;;;2256413;61;20473;-55
2023/12/22 02:53:54;0.00;0.00;0.62;0.00;0.00;0.62;2.47;1.03;;;20.90;26.80;;;;;;2256629;61;20454;-58
2023/12/22 02:56:42;0.00;0.00;0.62;0.00;0.00;0.62;4.90;1.60;;;20.90;26.80;;;;;;2256581;61;20366;-55
2023/12/22 02:59:28;0.00;0.00;0.62;0.00;0.00;0.62;2.13;1.23;;;20.90;26.80;;;;;;2256696;61;20425;-58
2023/12/22 03:02:13;0.00;0.00;0.62;0.00;0.00;0.62;2.37;1.27;;;20.90;26.80;;;;;;2256756;61;20399;-57
2023/12/22 03:04:57;0.00;0.00;0.62;0.00;0.00;0.62;2.53;1.30;;;20.90;26.80;;;;;;2256760;61;20358;-55
2023/12/22 03:07:42;0.00;0.00;0.62;0.00;0.00;0.62;2.80;1.27;;;20.90;26.80;;;;;;2256785;61;20413;-58
2023/12/22 03:10:28;0.00;0.00;0.62;0.00;0.00;0.62;2.33;1.00;;;20.90;26.80;;;;;;2256867;61;20913;-58
2023/12/22 03:13:14;0.00;0.00;0.62;0.00;0.00;0.62;2.27;1.20;;;20.90;26.80;;;;;;2256198;61;20492;-58
2023/12/22 03:15:59;0.00;0.00;0.62;0.00;0.00;0.62;3.00;1.43;;;20.90;26.80;;;;;;2256917;61;20369;-58
2023/12/22 03:18:44;0.00;0.00;0.62;0.00;0.00;0.62;3.23;1.00;;;20.90;27.10;;;;;;2256473;61;20421;-55
2023/12/22 03:21:28;0.00;0.00;0.62;0.00;0.00;0.62;2.13;0.93;;;20.90;26.80;;;;;;2256977;61;20809;-55
2023/12/22 03:24:13;0.00;0.00;0.62;0.00;0.00;0.62;2.10;1.20;;;20.90;26.80;;;;;;2256846;61;20766;-54
2023/12/22 03:26:57;0.00;0.00;0.62;0.00;0.00;0.62;2.80;1.20;;;20.90;26.80;;;;;;2256253;61;20800;-54
2023/12/22 03:29:43;0.00;0.00;0.62;0.00;0.00;0.62;2.77;1.23;;;20.90;26.80;;;;;;2256858;61;20386;-57
2023/12/22 03:32:28;0.00;0.00;0.62;0.00;0.00;0.62;2.33;1.40;;;20.90;26.70;;;;;;2256383;61;20374;-56
2023/12/22 03:35:13;0.00;0.00;0.62;0.00;0.00;0.62;2.57;1.20;;;20.90;26.70;;;;;;2256494;61;21023;-55
2023/12/22 03:37:58;0.00;0.00;0.62;0.00;0.00;0.62;3.00;1.20;;;20.90;26.70;;;;;;2257107;61;20362;-58
2023/12/22 03:40:42;0.00;0.00;0.62;0.00;0.00;0.62;4.87;1.10;;;20.90;26.70;;;;;;2256695;61;20433;-59
2023/12/22 03:43:28;0.00;0.00;0.62;0.00;0.00;0.62;4.73;2.03;;;20.90;26.70;;;;;;2256247;61;20416;-58
2023/12/22 03:46:14;0.00;0.00;0.62;0.00;0.00;0.62;2.83;1.00;;;20.90;26.70;;;;;;2256879;61;20416;-54
2023/12/22 03:48:58;0.00;0.00;0.62;0.00;0.00;0.62;2.40;1.10;;;20.90;26.70;;;;;;2256417;61;20521;-55
2023/12/22 03:51:43;0.00;0.00;0.62;0.00;0.00;0.62;2.77;1.40;;;20.90;26.70;;;;;;2256316;61;20461;-57
2023/12/22 03:54:27;0.00;0.00;0.62;0.00;0.00;0.62;3.13;1.00;;;20.90;26.70;;;;;;2256674;61;20420;-56
2023/12/22 03:57:12;0.00;0.00;0.62;0.00;0.00;0.62;2.40;1.10;;;20.80;26.60;;;;;;2256407;61;20362;-57
2023/12/22 03:59:56;0.00;0.00;0.62;0.00;0.00;0.62;4.67;1.10;;;20.80;26.60;;;;;;2256679;61;20413;-55
2023/12/22 04:02:42;0.00;0.00;0.62;0.00;0.00;0.62;2.87;1.00;;;20.80;26.60;;;;;;2256495;61;20444;-55
2023/12/22 04:05:27;0.00;0.00;0.62;0.00;0.00;0.62;2.80;1.07;;;20.80;26.60;;;;;;2256089;61;20497;-60
2023/12/22 04:08:12;0.00;0.00;0.62;0.00;0.00;0.62;2.30;1.07;;;20.80;26.60;;;;;;2256828;61;20362;-58
2023/12/22 04:10:57;0.00;0.00;0.62;0.00;0.00;0.62;3.07;1.40;;;20.80;26.60;;;;;;2256342;61;20377;-55
2023/12/22 04:13:41;0.00;0.00;0.62;0.00;0.00;0.62;3.17;1.43;;;20.80;26.60;;;;;;2256479;61;20370;-58
2023/12/22 04:16:26;0.00;0.00;0.62;0.00;0.00;0.62;4.90;1.37;;;20.80;26.60;;;;;;2256647;61;20361;-55
2023/12/22 04:19:11;0.00;0.00;0.62;0.00;0.00;0.62;2.30;1.27;;;20.80;26.60;;;;;;2256412;61;20401;-55
2023/12/22 04:21:56;0.00;0.00;0.62;0.00;0.00;0.62;2.90;1.07;;;20.80;26.60;;;;;;2256283;61;20831;-56
2023/12/22 04:24:41;0.00;0.00;0.62;0.00;0.00;0.62;2.80;1.30;;;20.80;26.60;;;;;;2256807;61;20592;-53
2023/12/22 04:27:25;0.00;0.00;0.62;0.00;0.00;0.62;3.10;1.13;;;20.80;26.60;;;;;;2256111;61;20777;-55
2023/12/22 04:30:11;0.00;0.00;0.62;0.00;0.00;0.62;2.93;1.17;;;20.80;26.60;;;;;;2256734;61;20389;-58
2023/12/22 04:32:56;0.00;0.00;0.62;0.00;0.00;0.62;2.57;1.10;;;20.80;26.60;;;;;;2255864;61;20413;-56
2023/12/22 04:35:42;0.00;0.00;0.62;0.00;0.00;0.62;1.93;0.90;;;20.80;26.60;;;;;;2256779;61;20432;-59
2023/12/22 04:38:26;0.00;0.00;0.62;0.00;0.00;0.62;2.37;1.10;;;20.80;26.60;;;;;;2256557;61;20362;-52
2023/12/22 04:41:11;0.00;0.00;0.62;0.00;0.00;0.62;2.83;1.07;;;20.80;26.60;;;;;;2255812;61;20396;-57
2023/12/22 04:43:55;0.00;0.00;0.62;0.00;0.00;0.62;4.00;1.43;;;20.80;26.70;;;;;;2255601;61;20362;-53
2023/12/22 04:46:40;0.00;0.00;0.62;0.00;0.00;0.62;2.50;1.10;;;20.80;26.70;;;;;;2256521;61;20401;-55
2023/12/22 04:49:24;0.00;0.00;0.62;0.00;0.00;0.62;8.13;1.30;;;20.80;26.60;;;;;;2256164;61;20790;-55
2023/12/22 04:52:11;0.00;0.00;0.62;0.00;0.00;0.62;2.00;1.13;;;20.80;26.70;;;;;;2256204;61;20366;-52
2023/12/22 04:54:56;0.00;0.00;0.62;0.00;0.00;0.62;2.63;1.37;;;20.80;26.70;;;;;;2256300;61;20365;-55
2023/12/22 04:57:40;0.00;0.00;0.62;0.00;0.00;0.62;2.30;1.40;;;20.80;26.70;;;;;;2256608;61;20385;-58
2023/12/22 05:00:26;0.00;0.00;0.62;0.00;0.00;0.62;2.20;1.13;;;20.80;26.70;;;;;;2256347;61;20385;-57
2023/12/22 05:03:11;0.00;0.00;0.62;0.00;0.00;0.62;2.47;1.03;;;20.80;26.70;;;;;;2255771;61;20925;-55
2023/12/22 05:05:55;0.00;0.00;0.62;0.00;0.00;0.62;2.60;1.20;;;20.80;26.70;;;;;;2256553;61;20370;-54
2023/12/22 05:08:41;0.00;0.00;0.62;0.00;0.00;0.62;2.27;0.97;;;20.80;26.80;;;;;;2256660;61;20678;-57
2023/12/22 05:11:26;0.00;0.00;0.62;0.00;0.00;0.62;2.17;1.10;;;20.80;26.70;;;;;;2256194;61;20373;-56
2023/12/22 05:14:11;0.00;0.00;0.62;0.00;0.00;0.62;1.90;0.97;;;20.70;26.60;;;;;;2256681;61;20366;-56
2023/12/22 05:16:56;0.00;0.00;0.62;0.00;0.00;0.62;3.10;1.33;;;20.80;26.70;;;;;;2256189;61;20950;-56
2023/12/22 05:19:41;0.00;0.00;0.62;0.00;0.00;0.62;2.50;0.93;;;20.80;26.70;;;;;;2256459;61;20390;-56
2023/12/22 05:22:26;0.00;0.00;0.62;0.00;0.00;0.62;2.67;1.37;;;20.80;26.70;;;;;;2256076;61;20532;-57
2023/12/22 05:25:13;0.00;0.00;0.62;0.00;0.00;0.62;2.63;1.00;;;20.80;26.70;;;;;;2256420;61;20377;-57
2023/12/22 05:27:58;0.00;0.00;0.62;0.00;0.00;0.62;3.10;1.80;;;20.80;26.70;;;;;;2256492;61;20497;-56
2023/12/22 05:30:42;0.00;0.00;0.62;0.00;0.00;0.62;2.40;1.20;;;20.80;26.70;;;;;;2256372;61;20444;-57
2023/12/22 05:33:27;0.00;0.00;0.62;0.00;0.00;0.62;2.90;1.50;;;20.80;26.70;;;;;;2255803;61;20505;-57
2023/12/22 05:36:11;0.00;0.00;0.62;0.00;0.00;0.62;2.63;1.20;;;20.80;26.60;;;;;;2256668;61;20424;-55
2023/12/22 05:38:56;0.00;0.00;0.62;0.00;0.00;0.62;2.43;1.57;;;20.70;26.50;;;;;;2256266;61;20981;-54
2023/12/22 05:41:42;0.00;0.00;0.62;0.00;0.00;0.62;1.97;1.10;;;20.80;26.70;;;;;;2256262;61;20373;-56
2023/12/22 05:44:29;0.00;0.00;0.62;0.00;0.00;0.62;2.67;1.13;;;20.80;26.60;;;;;;2256386;61;20378;-56
2023/12/22 05:47:14;0.00;0.00;0.62;0.00;0.00;0.62;2.90;1.50;;;20.80;26.60;;;;;;2256202;61;20672;-59
2023/12/22 05:49:59;0.00;0.00;0.62;0.00;0.00;0.62;2.47;1.60;;;20.80;26.60;;;;;;2256503;61;20378;-57
2023/12/22 05:52:44;0.00;0.00;0.62;0.00;0.00;0.62;3.60;1.27;;;20.80;26.60;;;;;;2256419;61;20393;-58
2023/12/22 05:55:29;0.00;0.00;0.62;0.00;0.00;0.62;2.00;1.10;;;20.80;26.60;;;;;;2256341;61;20366;-56
2023/12/22 05:58:16;0.00;0.00;0.62;0.00;0.00;0.62;3.43;2.07;;;20.80;26.60;;;;;;2256652;61;20767;-54
2023/12/22 06:01:01;0.00;0.00;0.62;0.00;0.00;0.62;2.67;1.17;;;20.70;26.50;;;;;;2256758;61;20409;-57
2023/12/22 06:03:46;0.00;0.00;0.62;0.00;0.00;0.62;3.27;1.47;;;20.70;26.50;;;;;;2256398;61;20469;-56
2023/12/22 06:06:30;0.00;0.00;0.62;0.00;0.00;0.62;3.17;1.63;;;20.70;26.50;;;;;;2256764;61;20825;-57
2023/12/22 06:09:15;0.00;0.00;0.62;0.00;0.00;0.62;2.57;1.60;;;20.70;26.50;;;;;;2256215;61;20384;-58
2023/12/22 06:12:00;0.00;0.00;0.62;0.00;0.00;0.62;3.73;1.60;;;20.70;26.50;;;;;;2255914;61;20366;-57
2023/12/22 06:14:46;0.00;0.00;0.62;0.00;0.00;0.62;2.03;1.27;;;20.70;26.50;;;;;;2257381;61;20370;-55
2023/12/22 06:17:31;0.00;0.00;0.62;0.00;0.00;0.62;3.73;1.70;;;20.70;26.50;;;;;;2256576;61;20408;-57
2023/12/22 06:20:17;0.00;0.00;0.62;0.00;0.00;0.62;3.90;1.60;;;20.70;26.50;;;;;;2257177;61;20405;-57
2023/12/22 06:23:04;0.00;0.00;0.62;0.00;0.00;0.62;4.13;2.13;;;20.70;26.50;;;;;;2256582;61;20448;-55
2023/12/22 06:25:49;0.00;0.00;0.62;0.00;0.00;0.62;3.47;1.50;;;20.70;26.50;;;;;;2256181;61;20416;-58
2023/12/22 06:28:36;0.00;0.00;0.62;0.00;0.00;0.62;2.53;1.80;;;20.70;26.50;;;;;;2256938;61;20393;-56
2023/12/22 06:31:22;0.00;0.00;0.62;0.00;0.00;0.62;4.70;1.80;;;20.70;26.50;;;;;;2256521;61;20424;-55
2023/12/22 06:34:08;0.00;0.00;0.62;0.00;0.00;0.62;2.43;1.30;;;20.70;26.50;;;;;;2257033;61;20381;-54
2023/12/22 06:36:52;0.00;0.00;0.62;0.00;0.00;0.62;3.13;1.50;;;20.70;26.50;;;;;;2257088;61;20369;-58
2023/12/22 06:39:37;0.00;0.00;0.62;0.00;0.00;0.62;4.70;2.40;;;20.70;26.50;;;;;;2256656;61;20433;-59
2023/12/22 06:42:21;0.00;0.00;0.62;0.00;0.00;0.62;4.30;1.87;;;20.70;26.50;;;;;;2256744;61;20362;-55
2023/12/22 06:45:07;0.00;0.00;0.62;0.00;0.00;0.62;2.97;1.80;;;20.70;26.50;;;;;;2257167;61;20435;-58
2023/12/22 06:47:53;0.00;0.00;0.62;0.00;0.00;0.62;4.13;2.07;;;20.70;26.50;;;;;;2256791;61;21152;-56
2023/12/22 06:50:39;0.00;0.00;0.62;0.00;0.00;0.62;2.93;1.70;;;20.70;26.50;;;;;;2257240;61;20385;-53
2023/12/22 06:53:24;0.00;0.00;0.62;0.00;0.00;0.62;3.70;2.37;;;20.70;26.50;;;;;;2256462;61;20368;-52
2023/12/22 06:56:16;0.00;0.00;0.62;0.00;0.00;0.62;3.10;1.70;;;20.70;26.60;;;;;;2257297;61;20825;-55
2023/12/22 06:59:01;0.00;0.00;0.62;0.00;0.00;0.62;3.53;2.17;;;20.70;26.60;;;;;;2257215;61;20381;-56
2023/12/22 07:01:46;0.00;0.00;0.62;0.00;0.00;0.62;3.47;2.33;;;20.70;26.60;;;;;;2256562;61;20368;-54
2023/12/22 07:04:31;0.00;0.00;0.62;0.00;0.00;0.62;3.83;2.27;;;20.70;26.50;;;;;;2257381;61;20450;-58
2023/12/22 07:07:16;0.00;0.00;0.62;0.00;0.00;0.62;3.43;1.80;;;20.70;26.60;;;;;;2257019;61;20849;-58
2023/12/22 07:10:01;0.00;0.00;0.62;0.00;0.00;0.62;2.80;1.80;;;20.70;26.60;;;;;;2256552;61;20381;-56
2023/12/22 07:12:45;0.00;0.00;0.62;0.00;0.00;0.62;4.00;2.20;;;20.70;26.60;;;;;;2256586;61;20369;-55
2023/12/22 07:15:30;0.00;0.00;0.62;0.00;0.00;0.62;4.50;2.47;;;20.70;26.60;;;;;;2256079;61;20401;-55
2023/12/22 07:18:15;0.00;0.00;0.62;0.00;0.00;0.62;3.50;2.30;;;20.70;26.60;;;;;;2256773;61;20409;-59
2023/12/22 07:21:01;0.00;0.00;0.62;0.00;0.00;0.62;3.40;2.43;;;20.70;26.60;;;;;;2256887;61;20362;-54
2023/12/22 07:23:45;0.00;0.00;0.62;0.00;0.00;0.62;4.90;2.57;;;20.70;26.60;;;;;;2256108;61;20385;-52
2023/12/22 07:26:30;0.00;0.00;0.62;0.00;0.00;0.62;4.80;2.80;;;20.70;26.60;;;;;;2256896;61;20386;-54
2023/12/22 07:29:15;0.00;0.00;0.62;0.00;0.00;0.62;6.23;2.50;;;20.70;26.60;;;;;;2256748;61;20952;-54
2023/12/22 07:32:00;0.00;0.00;0.62;0.00;0.00;0.62;5.07;2.50;;;20.70;26.60;;;;;;2256249;61;20886;-54
2023/12/22 07:34:45;0.00;0.00;0.62;0.00;0.00;0.62;3.10;2.00;;;20.70;26.60;;;;;;2256963;61;20361;-57
2023/12/22 07:37:31;0.00;0.00;0.62;0.00;0.00;0.62;3.97;2.13;;;20.70;26.60;;;;;;2256880;61;20357;-58
2023/12/22 07:40:15;0.00;0.00;0.62;0.00;0.00;0.62;3.47;2.30;;;20.70;26.60;;;;;;2256770;61;20425;-57
2023/12/22 07:43:00;0.00;0.00;0.62;0.00;0.00;0.62;4.03;2.67;;;20.70;26.60;;;;;;2256576;61;20389;-55
2023/12/22 07:45:45;0.00;0.00;0.62;0.00;0.00;0.62;5.40;2.90;;;20.70;26.60;;;;;;2256640;61;20470;-56
2023/12/22 07:48:30;0.00;0.00;0.62;0.00;0.00;0.62;3.00;2.10;;;20.70;26.60;;;;;;2256723;61;20474;-59
2023/12/22 07:51:14;0.00;0.00;0.62;0.00;0.00;0.62;3.90;2.30;;;20.70;26.60;;;;;;2256658;61;20878;-57
2023/12/22 07:54:00;0.00;0.00;0.62;0.00;0.00;0.62;3.93;2.27;;;20.70;26.60;;;;;;2256480;61;20362;-58
2023/12/22 07:56:44;0.00;0.00;0.62;0.00;0.00;0.62;3.70;2.83;;;20.60;26.50;;;;;;2256983;61;20366;-55
2023/12/22 07:59:29;0.00;0.00;0.62;0.00;0.00;0.62;4.97;3.47;;;20.60;26.50;;;;;;2256695;61;20385;-56
2023/12/22 08:02:13;0.00;0.00;0.62;0.00;0.00;0.62;4.50;3.10;;;20.60;26.50;;;;;;2256558;61;20446;-57
2023/12/22 08:04:58;0.00;0.00;0.62;0.00;0.00;0.62;5.57;3.50;;;20.70;26.60;;;;;;2257022;61;20458;-55
2023/12/22 08:07:42;0.00;0.00;0.62;0.00;0.00;0.62;5.23;3.30;;;20.60;26.50;;;;;;2256592;61;20432;-56
2023/12/22 08:10:28;0.00;0.00;0.62;0.00;0.00;0.62;5.87;3.40;;;20.60;26.50;;;;;;2256716;61;20390;-58
2023/12/22 08:13:13;0.00;0.00;0.62;0.00;0.00;0.62;5.50;3.50;;;20.60;26.50;;;;;;2256153;61;20362;-57
2023/12/22 08:15:57;0.00;0.00;0.62;0.00;0.00;0.62;5.00;3.43;;;20.70;26.60;;;;;;2256409;61;20420;-57
2023/12/22 08:18:42;0.00;0.00;0.62;0.00;0.00;0.62;5.23;4.00;;;20.60;26.50;;;;;;2256910;61;20388;-56
2023/12/22 08:21:27;0.00;0.00;0.62;0.00;0.00;0.62;5.40;3.63;;;20.60;26.50;;;;;;2256654;61;20416;-55
2023/12/22 08:24:12;0.00;0.00;0.62;0.00;0.00;0.62;5.57;3.73;;;20.60;26.50;;;;;;2256458;61;20459;-54
2023/12/22 08:26:58;0.00;0.00;0.62;0.00;0.00;0.62;5.23;3.90;;;20.60;26.50;;;;;;2256127;61;20440;-56
2023/12/22 08:29:42;0.00;0.00;0.62;0.00;0.00;0.62;6.87;4.37;;;20.70;26.60;;;;;;2256000;61;20389;-55
2023/12/22 08:32:27;0.00;0.00;0.62;0.00;0.00;0.62;6.60;4.73;;;20.70;26.60;;;;;;2256109;61;20905;-58
2023/12/22 08:35:11;0.00;0.00;0.62;0.00;0.00;0.62;6.50;5.07;;;20.60;26.50;;;;;;2256519;61;20369;-58
2023/12/22 08:37:57;0.00;0.00;0.62;0.00;0.00;0.62;9.70;5.67;;;20.60;26.50;;;;;;2256380;61;20420;-55
2023/12/22 08:40:41;0.00;0.00;0.62;0.00;0.00;0.62;5.00;4.03;;;20.60;26.50;;;;;;2256450;61;20449;-58
2023/12/22 08:43:27;0.00;0.00;0.62;0.00;0.00;0.62;5.43;4.30;;;20.60;26.50;;;;;;2256265;61;20373;-59
2023/12/22 08:46:12;0.00;0.00;0.62;0.00;0.00;0.62;7.83;4.40;;;20.60;26.50;;;;;;2256453;61;20421;-59
2023/12/22 08:48:59;0.00;0.00;0.62;0.00;0.00;0.62;7.07;4.60;;;20.60;27.10;;;;;;2256850;61;20385;-56
2023/12/22 08:51:43;0.00;0.00;0.62;0.00;0.00;0.62;6.63;4.67;;;20.60;26.60;;;;;;2255693;61;20370;-54
2023/12/22 08:54:28;0.00;0.00;0.62;0.00;0.00;0.62;6.80;4.83;;;20.60;26.60;;;;;;2256546;61;20389;-57
2023/12/22 08:56:54;0.00;0.00;0.62;0.00;0.00;0.62;6.20;4.57;;;20.60;26.60;;;;;;2256615;61;20811;-56
2023/12/22 08:59:22;0.00;0.00;0.62;0.00;0.00;0.62;5.70;4.60;;;20.60;26.60;;;;;;2256162;61;20379;-58
2023/12/22 09:01:48;0.00;0.00;0.62;0.00;0.00;0.62;6.57;4.50;;;20.60;26.60;;;;;;2256392;61;20363;-54
2023/12/22 09:04:32;0.00;0.00;0.62;0.00;0.00;0.62;7.20;5.33;;;20.60;26.50;;;;;;2256546;61;20362;-57
2023/12/22 09:07:17;0.00;0.00;0.62;0.00;0.00;0.62;7.53;5.13;;;20.60;26.60;;;;;;2256222;61;20486;-59
2023/12/22 09:10:03;0.00;0.00;0.62;0.00;0.00;0.62;8.10;4.97;;;20.60;26.60;;;;;;2256602;61;20436;-54
2023/12/22 09:12:48;0.00;0.00;0.62;0.00;0.00;0.62;6.20;4.00;;;20.60;26.60;;;;;;2256186;61;20786;-57
2023/12/22 09:15:33;0.00;0.00;0.62;0.00;0.00;0.62;6.50;4.40;;;20.60;26.60;;;;;;2256223;61;20363;-55
2023/12/22 09:18:18;0.00;0.00;0.62;0.00;0.00;0.62;7.50;4.53;;;20.70;26.70;;;;;;2256508;61;20484;-57
2023/12/22 09:21:03;0.00;0.00;0.62;0.00;0.00;0.62;6.40;4.53;;;20.60;26.60;;;;;;2256347;61;20389;-57
2023/12/22 09:23:49;0.00;0.00;0.62;0.00;0.00;0.62;7.33;4.00;;;20.60;26.60;;;;;;2255870;61;20362;-57
2023/12/22 09:26:34;0.00;0.00;0.62;0.00;0.00;0.62;6.30;4.23;;;20.60;26.60;;;;;;2256469;61;20386;-57
2023/12/22 09:29:19;0.00;0.00;0.62;0.00;0.00;0.62;5.60;4.00;;;20.60;26.60;;;;;;2256070;61;20425;-57
2023/12/22 09:32:05;0.00;0.00;0.62;0.00;0.00;0.62;7.00;4.00;;;20.60;26.60;;;;;;2256136;61;20382;-54
2023/12/22 09:34:50;0.00;0.00;0.62;0.00;0.00;0.62;8.20;4.57;;;20.60;26.60;;;;;;2256696;61;20373;-56
2023/12/22 09:37:34;0.00;0.00;0.62;0.00;0.00;0.62;6.03;3.80;;;20.60;26.60;;;;;;2256049;61;20872;-57
2023/12/22 09:40:19;0.00;0.00;0.62;0.00;0.00;0.62;6.20;4.30;;;20.60;26.60;;;;;;2256500;61;20388;-57
2023/12/22 09:43:05;0.00;0.00;0.62;0.00;0.00;0.62;6.50;4.07;;;20.60;26.60;;;;;;2256228;61;20366;-57
2023/12/22 09:45:50;0.00;0.00;0.62;0.00;0.00;0.62;6.33;3.80;;;20.60;26.60;;;;;;2256247;61;20409;-55
2023/12/22 09:48:39;0.00;0.00;0.62;0.00;0.00;0.62;5.23;3.97;;;20.60;26.60;;;;;;2256769;61;20448;-57
2023/12/22 09:51:24;0.00;0.00;0.62;0.00;0.00;0.62;6.10;3.57;;;20.60;26.60;;;;;;2257002;61;20365;-55
2023/12/22 09:54:09;0.00;0.00;0.62;0.00;0.00;0.62;5.17;3.87;;;20.60;26.60;;;;;;2257264;61;20369;-58
2023/12/22 09:56:54;0.00;0.00;0.62;0.00;0.00;0.62;5.87;3.77;;;20.70;26.70;;;;;;2257391;61;20366;-53
2023/12/22 09:59:39;0.00;0.00;0.62;0.00;0.00;0.62;5.07;3.97;;;20.60;26.60;;;;;;2257065;61;20381;-59
2023/12/22 10:02:25;0.00;0.00;0.62;0.00;0.00;0.62;5.03;3.70;;;20.70;26.70;;;;;;2256677;61;20401;-54
2023/12/22 10:05:13;0.00;0.00;0.62;0.00;0.00;0.62;4.50;3.60;;;20.70;26.60;;;;;;2257137;61;20365;-56
2023/12/22 10:08:00;0.00;0.00;0.62;0.00;0.00;0.62;5.07;3.27;;;20.70;26.60;;;;;;2257061;61;20448;-57
2023/12/22 10:10:47;0.00;0.00;0.62;0.00;0.00;0.62;5.13;3.80;;;20.70;26.60;;;;;;2257020;61;20421;-58
2023/12/22 10:13:35;0.00;0.00;0.62;0.00;0.00;0.62;5.60;3.70;;;20.70;26.60;;;;;;2256086;61;20468;-56
2023/12/22 10:16:21;0.00;0.00;0.62;0.00;0.00;0.62;7.30;3.60;;;20.70;26.60;;;;;;2257438;61;20830;-56
2023/12/22 10:19:06;0.00;0.00;0.62;0.00;0.00;0.62;4.90;3.30;;;20.70;26.60;;;;;;2257346;61;20394;-57
2023/12/22 10:21:52;0.00;0.00;0.62;0.00;0.00;0.62;5.43;4.20;;;20.70;26.50;;;;;;2256789;61;20365;-56
2023/12/22 10:24:38;0.00;0.00;0.62;0.00;0.00;0.62;6.80;4.47;;;20.70;27.10;;;;;;2257503;61;20447;-56
2023/12/22 10:27:23;0.00;0.00;0.62;0.00;0.00;0.62;4.97;3.67;;;20.70;27.10;;;;;;2256883;61;20417;-57
2023/12/22 10:30:09;0.00;0.00;0.62;0.00;0.00;0.62;4.27;3.50;;;20.70;26.50;;;;;;2257145;61;20377;-58
2023/12/22 10:32:54;0.00;0.00;0.62;0.00;0.00;0.62;5.40;3.90;;;20.70;26.50;;;;;;2256476;61;20853;-55
2023/12/22 10:35:41;0.00;0.00;0.62;0.00;0.00;0.62;6.13;4.20;;;20.70;26.60;;;;;;2256302;61;20770;-55
2023/12/22 10:38:34;0.00;0.00;0.62;0.00;0.00;0.62;5.33;3.80;;;20.70;26.60;;;;;;2257055;61;20979;-56
2023/12/22 10:41:19;0.00;0.00;0.62;0.00;0.00;0.62;5.80;4.40;;;20.70;26.50;;;;;;2256786;61;20446;-59
2023/12/22 10:44:04;0.00;0.00;0.62;0.00;0.00;0.62;6.53;4.17;;;20.70;26.50;;;;;;2256534;61;20394;-52
2023/12/22 10:46:49;0.00;0.00;0.62;0.00;0.00;0.62;5.17;3.97;;;20.70;26.50;;;;;;2257083;61;20397;-53
2023/12/22 10:49:33;0.00;0.00;0.62;0.00;0.00;0.62;6.30;3.90;;;20.70;26.50;;;;;;2256886;61;20409;-53
2023/12/22 10:52:20;0.00;0.00;0.62;0.00;0.00;0.62;5.60;3.77;;;20.70;26.60;;;;;;2256430;61;20369;-54